createdAt,value
2022-12-13T00:02:26.369Z,4.25
2022-12-13T00:04:54.071Z,4.32
2022-12-13T00:07:26.749Z,3.03
2022-12-13T00:09:54.183Z,5.82
2022-12-13T00:13:05.684Z,5.85
2022-12-13T00:15:34.069Z,5.53
2022-12-13T00:18:03.916Z,4.63
2022-12-13T00:20:31.298Z,7.97
2022-12-13T00:22:58.393Z,5.65
2022-12-13T00:25:28.061Z,6.28
2022-12-13T00:27:54.997Z,3.42
2022-12-13T00:30:22.300Z,4.07
2022-12-13T00:32:51.709Z,4.53
2022-12-13T00:35:18.688Z,5.88
2022-12-13T00:37:45.694Z,6.43
2022-12-13T00:40:18.299Z,4.80
2022-12-13T00:42:48.218Z,4.97
2022-12-13T00:45:15.710Z,4.40
2022-12-13T00:47:43.335Z,2.67
2022-12-13T00:50:10.769Z,4.28
2022-12-13T00:52:40.341Z,4.35
2022-12-13T00:55:10.011Z,5.28
2022-12-13T00:57:38.048Z,5.22
2022-12-13T01:00:08.320Z,3.80
2022-12-13T01:06:19.374Z,9.00
2022-12-13T01:10:23.375Z,2.70
2022-12-13T01:11:59.887Z,4.60
2022-12-13T01:21:12.348Z,3.38
2022-12-13T01:23:42.866Z,4.03
2022-12-13T01:26:15.862Z,3.92
2022-12-13T01:28:43.020Z,2.42
2022-12-13T01:31:12.675Z,6.18
2022-12-13T01:34:00.130Z,3.00
2022-12-13T01:36:38.148Z,6.38
2022-12-13T01:39:27.995Z,4.90
2022-12-13T01:42:03.473Z,4.10
2022-12-13T01:45:08.782Z,3.92
2022-12-13T01:47:51.978Z,3.95
2022-12-13T01:50:48.444Z,3.45
2022-12-13T01:53:47.850Z,4.40
2022-12-13T01:56:23.555Z,4.50
2022-12-13T01:58:55.475Z,4.35
2022-12-13T02:01:23.366Z,4.20
2022-12-13T02:03:50.536Z,5.80
2022-12-13T02:06:36.967Z,3.00
2022-12-13T02:09:07.185Z,4.55
2022-12-13T02:11:46.977Z,5.25
2022-12-13T02:14:34.469Z,3.35
2022-12-13T02:17:45.560Z,4.60
2022-12-13T02:21:01.881Z,4.63
2022-12-13T02:24:17.690Z,4.00
2022-12-13T02:27:03.520Z,6.35
2022-12-13T02:33:01.256Z,5.32
2022-12-13T02:35:49.054Z,5.22
2022-12-13T02:39:02.766Z,4.45
2022-12-13T02:46:04.438Z,6.15
2022-12-13T02:57:23.501Z,5.07
2022-12-13T03:04:01.166Z,5.32
2022-12-13T03:07:14.463Z,5.18
2022-12-13T03:10:02.764Z,5.85
2022-12-13T03:12:58.831Z,7.10
2022-12-13T03:15:51.280Z,4.65
2022-12-13T03:18:24.795Z,4.97
2022-12-13T03:21:09.819Z,5.30
2022-12-13T03:23:41.154Z,6.85
2022-12-13T03:26:29.875Z,6.57
2022-12-13T03:30:42.605Z,7.80
2022-12-13T03:32:05.858Z,5.78
2022-12-13T03:35:12.425Z,5.07
2022-12-13T03:43:03.494Z,6.20
2022-12-13T03:46:16.558Z,6.78
2022-12-13T03:50:26.088Z,5.43
2022-12-13T03:53:33.227Z,5.38
2022-12-13T03:56:27.237Z,4.70
2022-12-13T04:00:27.695Z,5.35
2022-12-13T04:05:12.372Z,4.80
2022-12-13T04:11:42.783Z,5.43
2022-12-13T04:14:11.313Z,5.38
2022-12-13T04:17:21.041Z,6.47
2022-12-13T04:20:11.628Z,6.95
2022-12-13T04:22:47.178Z,7.53
2022-12-13T04:25:22.640Z,8.75
2022-12-13T04:28:06.566Z,7.30
2022-12-13T04:34:21.829Z,6.88
2022-12-13T04:36:53.645Z,7.30
2022-12-13T04:42:54.595Z,7.40
2022-12-13T04:45:23.389Z,6.15
2022-12-13T04:47:59.562Z,5.05
2022-12-13T04:50:26.858Z,6.72
2022-12-13T04:52:54.072Z,5.88
2022-12-13T04:55:21.298Z,9.90
2022-12-13T04:57:59.089Z,8.32
2022-12-13T05:00:36.179Z,7.07
2022-12-13T05:03:05.713Z,7.72
2022-12-13T05:05:41.879Z,6.95
2022-12-13T05:08:25.191Z,5.47
2022-12-13T05:11:00.074Z,6.82
2022-12-13T05:14:29.116Z,5.95
2022-12-13T05:16:43.119Z,7.88
2022-12-13T05:19:15.783Z,6.05
2022-12-13T05:22:02.775Z,7.95
2022-12-13T05:24:32.128Z,6.80
2022-12-13T05:26:59.450Z,6.20
2022-12-13T05:32:49.504Z,8.00
2022-12-13T05:35:27.625Z,9.82
2022-12-13T05:37:55.399Z,7.72
2022-12-13T05:40:30.409Z,6.75
2022-12-13T05:43:01.985Z,9.15
2022-12-13T05:51:09.862Z,5.47
2022-12-13T05:53:42.198Z,6.68
2022-12-13T05:56:11.547Z,7.38
2022-12-13T15:37:28.094Z,15.35
2022-12-13T15:40:05.060Z,18.05
2022-12-13T15:42:44.435Z,14.18
2022-12-13T15:45:36.603Z,14.25
2022-12-13T15:48:04.818Z,16.38
2022-12-13T15:50:43.864Z,21.20
2022-12-13T15:53:28.337Z,17.77
2022-12-13T15:55:57.640Z,19.92
2022-12-13T15:58:37.962Z,22.98
2022-12-13T16:01:08.807Z,21.42
2022-12-13T16:03:47.281Z,16.33
2022-12-13T16:06:22.818Z,20.50
2022-12-13T16:08:57.104Z,18.95
2022-12-13T16:11:30.930Z,19.52
2022-12-13T16:14:26.619Z,20.77
2022-12-13T16:16:55.425Z,30.83
2022-12-13T16:19:26.849Z,15.65
2022-12-13T16:21:58.697Z,18.05
2022-12-13T16:24:26.909Z,18.10
2022-12-13T16:27:08.334Z,17.58
2022-12-13T16:29:39.477Z,15.50
2022-12-13T16:32:18.603Z,14.45
2022-12-13T16:34:45.945Z,15.20
2022-12-13T16:37:26.210Z,14.48
2022-12-13T16:39:54.897Z,12.75
2022-12-13T16:42:29.476Z,24.05
2022-12-13T17:25:30.185Z,16.00
2022-12-13T17:28:04.974Z,17.33
2022-12-13T17:30:40.241Z,18.17
2022-12-13T17:33:15.525Z,19.77
2022-12-13T17:38:25.281Z,17.80
2022-12-13T17:41:05.428Z,23.40
2022-12-13T17:43:38.382Z,13.98
2022-12-13T17:46:13.924Z,16.73
2022-12-13T17:48:41.694Z,22.55
2022-12-13T17:54:19.860Z,25.85
2022-12-13T17:56:47.458Z,22.63
2022-12-13T17:59:23.883Z,19.08
2022-12-13T18:01:51.313Z,18.58
2022-12-13T18:04:18.340Z,21.95
2022-12-13T18:06:54.768Z,24.30
2022-12-13T18:10:05.864Z,18.75
2022-12-13T18:12:38.954Z,21.27
2022-12-13T18:15:06.792Z,15.90
2022-12-13T18:21:06.040Z,20.77
2022-12-13T18:55:17.254Z,61.20
2022-12-13T18:57:45.406Z,46.63
2022-12-13T19:00:12.687Z,34.28
2022-12-13T19:02:39.813Z,21.15
2022-12-13T19:05:06.791Z,23.55
2022-12-13T19:07:33.870Z,17.95
2022-12-13T19:10:08.954Z,23.10
2022-12-13T19:12:41.550Z,28.42
2022-12-13T19:15:08.740Z,23.13
2022-12-13T19:17:36.648Z,19.33
2022-12-13T19:20:03.902Z,17.48
2022-12-13T19:22:30.849Z,17.92
2022-12-13T19:24:57.732Z,24.17
2022-12-13T19:27:24.624Z,18.20
2022-12-13T19:29:54.246Z,25.73
2022-12-13T19:32:26.247Z,28.85
2022-12-13T19:34:53.357Z,23.80
2022-12-13T19:37:22.528Z,20.67
2022-12-13T19:39:58.003Z,18.80
2022-12-13T19:42:25.323Z,26.55
2022-12-13T19:44:52.689Z,27.92
2022-12-13T19:47:21.511Z,31.55
2022-12-13T19:49:48.468Z,29.92
2022-12-13T19:52:15.450Z,28.20
2022-12-13T19:54:42.939Z,23.35
2022-12-13T19:57:10.103Z,23.23
2022-12-13T19:59:36.997Z,20.98
2022-12-13T20:02:06.327Z,27.15
2022-12-13T20:04:36.327Z,25.13
2022-12-13T20:07:03.591Z,24.10
2022-12-13T20:09:30.626Z,20.15
2022-12-13T20:11:57.861Z,20.42
2022-12-13T20:14:25.418Z,26.10
2022-12-13T20:16:54.076Z,21.60
2022-12-13T20:19:21.318Z,22.75
2022-12-13T20:21:53.569Z,23.10
2022-12-13T20:24:23.792Z,28.23
2022-12-13T20:26:51.039Z,24.30
2022-12-13T20:29:19.262Z,19.92
2022-12-13T20:31:48.362Z,17.52
2022-12-13T20:34:16.333Z,30.23
2022-12-13T20:36:43.236Z,19.92
2022-12-13T20:39:13.058Z,23.45
2022-12-13T20:41:40.186Z,27.05
2022-12-13T20:44:09.173Z,34.38
2022-12-13T20:46:36.935Z,28.08
2022-12-13T20:49:06.371Z,32.20
2022-12-13T20:51:34.507Z,21.48
2022-12-13T20:54:01.987Z,19.23
2022-12-13T20:56:35.369Z,24.58
2022-12-13T20:59:04.101Z,17.63
2022-12-13T21:01:35.198Z,25.92
2022-12-13T21:04:05.721Z,24.38
2022-12-13T21:06:34.588Z,26.95
2022-12-13T21:09:03.115Z,24.50
2022-12-13T21:11:36.135Z,28.90
2022-12-13T21:14:11.000Z,24.30
2022-12-13T21:16:44.681Z,22.65
2022-12-13T21:19:15.838Z,25.85
2022-12-13T21:21:43.088Z,23.20
2022-12-13T21:24:15.008Z,23.20
2022-12-13T21:26:43.090Z,18.90
2022-12-13T21:29:11.628Z,21.88
2022-12-13T21:31:40.619Z,21.20
2022-12-13T21:34:08.130Z,25.88
2022-12-13T21:36:37.642Z,27.45
2022-12-13T21:39:08.054Z,28.45
2022-12-13T21:41:35.291Z,25.92
2022-12-13T21:44:02.204Z,25.83
2022-12-13T21:46:54.814Z,24.58
2022-12-13T21:49:17.570Z,22.42
2022-12-13T21:51:47.901Z,27.92
2022-12-13T21:54:15.193Z,17.55
2022-12-13T21:57:17.228Z,22.95
2022-12-13T21:59:44.053Z,23.27
2022-12-13T22:02:17.097Z,19.60
2022-12-13T22:04:51.680Z,26.50
2022-12-13T22:07:30.410Z,23.95
2022-12-13T22:09:59.342Z,24.40
2022-12-13T22:12:32.837Z,23.30
2022-12-13T22:17:49.875Z,25.35
2022-12-13T22:20:41.361Z,23.42
2022-12-13T22:23:17.545Z,23.20
2022-12-13T22:26:07.496Z,22.40
2022-12-13T22:28:40.304Z,24.23
2022-12-13T22:31:07.389Z,22.33
2022-12-13T22:33:34.160Z,21.05
2022-12-13T22:36:01.880Z,17.13
2022-12-13T22:38:32.164Z,20.13
2022-12-13T22:45:04.108Z,20.65
2022-12-13T22:47:31.004Z,18.27
2022-12-13T22:50:09.121Z,17.55
2022-12-13T22:54:55.045Z,21.02
2022-12-13T22:59:24.063Z,17.20
2022-12-13T23:01:54.302Z,16.27
2022-12-13T23:04:22.586Z,20.33
2022-12-13T23:06:50.448Z,18.13
2022-12-13T23:09:17.596Z,17.27
2022-12-13T23:12:03.046Z,16.15
2022-12-13T23:14:34.601Z,21.10
2022-12-13T23:17:05.340Z,19.08
2022-12-13T23:19:49.445Z,21.02
2022-12-13T23:22:25.711Z,19.17
2022-12-13T23:24:53.389Z,19.20
2022-12-13T23:27:22.031Z,21.35
2022-12-13T23:29:49.489Z,18.35
2022-12-13T23:32:16.967Z,18.80
2022-12-13T23:34:44.024Z,19.45
2022-12-13T23:37:11.350Z,21.33
2022-12-13T23:39:38.473Z,18.88
2022-12-13T23:42:05.418Z,18.08
2022-12-13T23:44:32.764Z,23.95
2022-12-13T23:47:01.972Z,22.13
2022-12-13T23:49:29.319Z,20.40
2022-12-13T23:51:56.421Z,20.38
2022-12-13T23:54:23.356Z,22.08
